Time;durP1;ratioP1;P1;durP2;ratioP2;P2;SDS_P1;SDS_P2;PMS_P1;PMS_P2;Temp;Humidity;BMP_temperature;BMP_pressure;BME280_temperature;BME280_humidity;BME280_pressure;Samples;Min_cycle;Max_cycle;Signal;HPM_P1;HPM_P2
2023/08/16 07:07:18;;;;;;;24.20;7.38;;;;;;;22.17;85.48;96874.78;2105081;27;20575;-61
2023/08/16 07:09:32;;;;;;;23.80;15.25;;;;;;;22.57;84.37;96869.56;2106448;27;21034;-61
2023/08/16 07:13:26;;;;;;;16.00;3.28;;;;;;;22.61;83.20;96865.66;2102774;27;20572;-61
2023/08/16 07:15:46;;;;;;;9.23;3.42;;;;;;;22.52;84.11;96869.16;2090681;27;20596;-61
2023/08/16 07:16:48;;;;;;;12.52;3.75;;;;;;;22.75;83.38;96859.91;2087354;28;20212;-61
2023/08/16 07:17:49;;;;;;;7.65;3.55;;;;;;;23.04;82.71;96866.22;2086821;28;20199;-61
2023/08/16 07:18:51;;;;;;;13.93;4.13;;;;;;;23.23;81.50;96866.22;2086697;28;20311;-62
2023/08/16 07:19:53;;;;;;;5.55;3.13;;;;;;;23.36;80.86;96859.75;2085751;28;20188;-62
2023/08/16 07:20:55;;;;;;;9.10;3.60;;;;;;;23.58;80.43;96867.41;2086399;28;20227;-62
2023/08/16 07:21:56;;;;;;;10.60;5.47;;;;;;;23.69;79.47;96869.06;2087080;28;20283;-62
2023/08/16 07:22:58;;;;;;;17.88;12.90;;;;;;;23.94;78.19;96869.44;2087029;28;20189;-62
2023/08/16 07:24:00;;;;;;;7.38;4.03;;;;;;;24.04;77.74;96862.22;2086889;28;20687;-62
2023/08/16 07:25:02;;;;;;;42.38;29.98;;;;;;;24.17;76.41;96867.22;2086914;28;20237;-61
2023/08/16 07:26:03;;;;;;;49.20;34.05;;;;;;;24.67;75.61;96867.78;2082094;28;20224;-67
2023/08/16 07:27:05;;;;;;;16.73;12.23;;;;;;;25.14;75.00;96870.22;2078836;28;20197;-63
2023/08/16 07:28:07;;;;;;;11.75;2.45;;;;;;;25.08;71.75;96865.50;2078850;28;20410;-63
2023/08/16 07:29:08;;;;;;;3.55;2.50;;;;;;;25.08;72.21;96871.66;2078947;28;20205;-62
2023/08/16 07:30:10;;;;;;;3.70;2.60;;;;;;;25.23;72.24;96857.72;2078969;28;20589;-63
2023/08/16 07:31:12;;;;;;;3.83;2.45;;;;;;;25.02;71.21;96861.59;2077649;28;20882;-62
2023/08/16 07:32:13;;;;;;;11.20;2.20;;;;;;;25.24;71.73;96865.63;2078886;28;20197;-62
2023/08/16 07:33:15;;;;;;;4.05;2.25;;;;;;;25.40;71.44;96864.91;2078861;28;20794;-63
2023/08/16 07:34:16;;;;;;;10.52;2.22;;;;;;;25.27;70.77;96865.28;2078819;28;20695;-63
2023/08/16 07:35:18;;;;;;;3.17;1.70;;;;;;;25.55;69.35;96867.03;2078042;28;20221;-63
2023/08/16 07:36:19;;;;;;;6.10;2.45;;;;;;;25.70;68.82;96861.91;2069381;28;20222;-63
2023/08/16 07:37:21;;;;;;;5.38;2.45;;;;;;;25.33;69.89;96863.84;2070351;28;20198;-63
2023/08/16 07:38:23;;;;;;;5.60;2.00;;;;;;;25.69;69.36;96868.28;2078175;28;20549;-63
2023/08/16 07:39:25;;;;;;;8.95;2.53;;;;;;;26.07;68.20;96866.16;2077763;28;20204;-63
2023/08/16 07:40:27;;;;;;;6.32;2.13;;;;;;;25.85;68.19;96872.88;2078876;28;20284;-62
2023/08/16 07:41:29;;;;;;;4.95;2.47;;;;;;;25.94;68.62;96866.59;2078210;28;20228;-63
2023/08/16 07:42:30;;;;;;;6.22;2.50;;;;;;;26.13;67.86;96872.69;2078913;28;20208;-63
2023/08/16 07:43:31;;;;;;;4.35;2.35;;;;;;;26.04;67.80;96867.28;2078932;28;20204;-63
2023/08/16 07:44:34;;;;;;;6.88;2.40;;;;;;;26.13;67.99;96876.22;2078060;28;20198;-63
2023/08/16 07:45:35;;;;;;;5.57;2.45;;;;;;;26.18;67.79;96879.25;2077190;28;20197;-63
2023/08/16 07:46:37;;;;;;;3.88;2.20;;;;;;;26.07;67.52;96875.00;2078787;28;20314;-63
2023/08/16 07:47:38;;;;;;;7.55;1.95;;;;;;;25.94;68.41;96871.06;2078742;28;20205;-63
2023/08/16 07:48:40;;;;;;;7.40;3.35;;;;;;;26.42;67.00;96872.28;2078772;28;20250;-63
2023/08/16 07:49:41;;;;;;;6.18;2.10;;;;;;;26.03;68.66;96864.75;2078673;28;20866;-63
2023/08/16 07:50:45;;;;;;;4.90;2.30;;;;;;;26.46;68.46;96867.44;2078097;28;20204;-63
2023/08/16 07:51:47;;;;;;;9.68;2.95;;;;;;;26.28;67.99;96863.03;2077821;28;20193;-63
2023/08/16 07:52:49;;;;;;;6.47;2.35;;;;;;;26.02;68.50;96865.78;2078538;28;20288;-62
2023/08/16 07:53:50;;;;;;;4.60;1.90;;;;;;;26.21;68.55;96865.53;2077909;28;20579;-62
2023/08/16 07:54:52;;;;;;;4.72;2.40;;;;;;;26.52;67.92;96862.28;2078655;28;20197;-63
2023/08/16 07:55:55;;;;;;;5.30;2.42;;;;;;;26.70;67.57;96864.84;2077722;28;20282;-63
2023/08/16 07:56:57;;;;;;;7.53;2.38;;;;;;;26.63;67.83;96861.13;2077652;28;20236;-63
2023/08/16 07:57:58;;;;;;;6.22;2.35;;;;;;;26.32;67.89;96872.44;2078718;28;20201;-65
2023/08/16 07:59:00;;;;;;;5.75;3.17;;;;;;;26.21;67.38;96867.38;2078812;28;20768;-64
2023/08/16 08:00:01;;;;;;;5.22;2.80;;;;;;;25.88;68.14;96881.41;2078651;28;20201;-63
2023/08/16 08:01:03;;;;;;;3.92;2.35;;;;;;;25.90;69.23;96871.41;2077850;28;20308;-64
2023/08/16 08:02:06;;;;;;;4.47;2.55;;;;;;;25.81;69.07;96875.00;2078048;28;20312;-64
2023/08/16 08:03:09;;;;;;;7.30;2.58;;;;;;;25.73;69.79;96875.00;2078139;28;20212;-64
2023/08/16 08:04:11;;;;;;;6.53;2.88;;;;;;;26.03;69.27;96873.63;2077059;28;20201;-64
2023/08/16 08:05:14;;;;;;;6.80;2.58;;;;;;;25.69;69.47;96874.47;2078715;28;20284;-63
2023/08/16 08:06:16;;;;;;;5.43;3.03;;;;;;;25.51;70.60;96879.00;2078067;28;20291;-64
2023/08/16 08:07:18;;;;;;;5.70;3.05;;;;;;;25.56;70.19;96871.34;2078822;28;20201;-64
2023/08/16 08:08:20;;;;;;;6.25;3.20;;;;;;;25.61;71.13;96877.09;2078045;28;20288;-63
2023/08/16 08:09:21;;;;;;;8.75;3.00;;;;;;;25.40;71.26;96872.94;2078556;28;20809;-63
2023/08/16 08:10:23;;;;;;;6.97;3.38;;;;;;;25.40;71.60;96880.94;2078418;28;20208;-63
2023/08/16 08:11:24;;;;;;;5.68;3.15;;;;;;;25.29;71.95;96875.00;2077789;28;20221;-64
2023/08/16 08:12:26;;;;;;;11.15;4.07;;;;;;;25.36;71.55;96876.09;2076816;28;20197;-64
2023/08/16 08:13:27;;;;;;;5.85;2.70;;;;;;;25.81;70.24;96877.69;2078396;28;20197;-64
2023/08/16 08:14:29;;;;;;;5.45;2.95;;;;;;;25.76;70.22;96880.00;2077685;28;20197;-64
2023/08/16 08:15:30;;;;;;;12.85;4.00;;;;;;;25.50;71.02;96878.19;2077398;28;20864;-64
2023/08/16 08:16:32;;;;;;;9.43;3.60;;;;;;;25.95;70.51;96878.09;2078319;28;20272;-64
2023/08/16 08:17:34;;;;;;;4.78;3.47;;;;;;;26.36;68.91;96880.97;2078074;28;20274;-65
2023/08/16 08:18:35;;;;;;;7.53;3.13;;;;;;;25.97;69.75;96879.63;2078468;28;20610;-64
2023/08/16 08:19:37;;;;;;;10.25;3.38;;;;;;;26.04;69.82;96875.31;2078254;28;20228;-64
2023/08/16 08:20:38;;;;;;;5.32;3.20;;;;;;;26.23;69.56;96884.97;2078031;28;20205;-64
2023/08/16 08:21:40;;;;;;;7.13;3.50;;;;;;;25.88;69.49;96885.94;2077859;28;20204;-64
2023/08/16 08:22:41;;;;;;;9.07;3.95;;;;;;;25.78;70.39;96883.38;2078616;28;20737;-64
2023/08/16 08:23:43;;;;;;;7.22;3.70;;;;;;;25.56;70.07;96880.22;2078328;28;20430;-64
2023/08/16 08:24:45;;;;;;;7.93;3.78;;;;;;;25.54;71.06;96879.53;2078282;28;20193;-64
2023/08/16 08:25:46;;;;;;;8.07;4.25;;;;;;;25.48;71.29;96885.50;2077852;28;20235;-64
2023/08/16 08:26:48;;;;;;;8.35;3.47;;;;;;;25.53;70.79;96874.34;2073736;28;20654;-63
2023/08/16 08:27:49;;;;;;;7.43;4.40;;;;;;;25.95;70.72;96875.44;2073102;28;20194;-60
2023/08/16 08:28:52;;;;;;;7.30;3.33;;;;;;;26.51;69.67;96878.50;2072670;28;20332;-60
2023/08/16 08:29:54;;;;;;;7.35;3.65;;;;;;;27.03;68.50;96866.72;2073190;28;20202;-60
2023/08/16 08:30:55;;;;;;;13.60;4.13;;;;;;;27.28;67.83;96872.94;2067041;28;20229;-61
2023/08/16 08:31:57;;;;;;;19.80;3.65;;;;;;;27.31;67.28;96869.94;2068379;28;20198;-61
2023/08/16 08:33:00;;;;;;;5.38;3.40;;;;;;;26.59;68.61;96873.19;2073108;28;20267;-61
2023/08/16 08:34:01;;;;;;;11.68;4.00;;;;;;;26.39;68.94;96872.63;2072509;28;20190;-62
2023/08/16 08:35:04;;;;;;;27.02;18.90;;;;;;;27.08;67.65;96874.28;2072578;28;20198;-61
2023/08/16 08:36:06;;;;;;;54.55;31.45;;;;;;;27.63;67.44;96868.22;2071961;28;20748;-61
2023/08/16 08:37:08;;;;;;;22.90;4.55;;;;;;;27.29;66.39;96876.47;2073106;28;20209;-62
2023/08/16 08:38:09;;;;;;;22.35;4.93;;;;;;;27.32;66.71;96868.06;2073180;28;20316;-62
2023/08/16 08:39:11;;;;;;;17.00;4.00;;;;;;;27.52;66.47;96869.41;2073178;28;20237;-61
2023/08/16 08:40:13;;;;;;;11.45;4.05;;;;;;;27.19;66.14;96868.59;2072875;28;20285;-61
2023/08/16 08:41:18;;;;;;;10.88;4.32;;;;;;;26.84;66.74;96865.22;2072636;28;20225;-62
2023/08/16 08:42:23;;;;;;;9.13;4.30;;;;;;;26.45;67.10;96879.16;2072562;28;20202;-61
2023/08/16 08:43:28;;;;;;;7.40;4.68;;;;;;;26.23;67.84;96868.03;2072808;28;20193;-61
2023/08/16 08:44:32;;;;;;;9.30;3.65;;;;;;;26.71;67.26;96871.84;2072880;28;20205;-61
2023/08/16 08:45:35;;;;;;;12.32;4.47;;;;;;;27.20;66.35;96878.31;2072156;28;20206;-61
2023/08/16 08:46:37;;;;;;;16.75;4.65;;;;;;;27.51;66.33;96874.94;2072725;28;20198;-61
2023/08/16 08:47:38;;;;;;;21.77;6.32;;;;;;;27.95;65.25;96874.50;2072920;28;20287;-61
2023/08/16 08:48:40;;;;;;;14.52;5.18;;;;;;;28.30;65.39;96876.91;2072436;28;20256;-61
2023/08/16 08:49:42;;;;;;;20.45;5.28;;;;;;;28.54;64.48;96872.44;2071644;28;20193;-61
2023/08/16 08:50:45;;;;;;;9.82;3.78;;;;;;;28.27;63.14;96874.59;2079430;28;20816;-62
2023/08/16 08:51:46;;;;;;;9.48;3.97;;;;;;;28.12;63.72;96875.31;2072751;28;20204;-61
2023/08/16 08:52:51;;;;;;;13.55;4.07;;;;;;;27.32;64.58;96873.44;2072795;28;20194;-62
2023/08/16 08:53:53;;;;;;;9.23;3.90;;;;;;;27.61;64.60;96874.78;2072912;28;20285;-62
2023/08/16 08:54:54;;;;;;;8.38;3.78;;;;;;;27.45;64.23;96881.84;2072804;28;20206;-61
2023/08/16 08:56:06;;;;;;;12.60;3.83;;;;;;;27.72;64.32;96877.09;2072011;28;20257;-61
2023/08/16 08:57:10;;;;;;;9.30;4.28;;;;;;;27.80;63.73;96871.69;2072669;28;20454;-61
2023/08/16 08:58:13;;;;;;;12.10;4.10;;;;;;;27.93;63.68;96876.53;2072740;28;20260;-61
2023/08/16 08:59:14;;;;;;;12.40;4.47;;;;;;;27.92;64.82;96863.28;2072858;28;20205;-61
2023/08/16 09:00:20;;;;;;;5.88;4.00;;;;;;;27.48;63.94;96867.25;2072344;28;20209;-62
2023/08/16 09:01:24;;;;;;;15.50;4.03;;;;;;;27.19;65.39;96874.78;2071721;28;20304;-61
2023/08/16 09:02:29;;;;;;;13.85;4.43;;;;;;;27.28;65.60;96866.75;2072034;28;20474;-61
2023/08/16 09:03:31;;;;;;;12.32;4.90;;;;;;;27.17;66.24;96868.75;2071944;28;20197;-61
2023/08/16 09:04:33;;;;;;;13.60;4.78;;;;;;;27.31;66.12;96866.41;2072561;28;20289;-61
2023/08/16 09:05:38;;;;;;;9.75;4.40;;;;;;;27.25;65.34;96867.06;2071014;28;20412;-61
2023/08/16 09:06:41;;;;;;;15.25;4.57;;;;;;;27.00;67.04;96862.53;2072819;28;20239;-61
2023/08/16 09:07:43;;;;;;;10.60;4.43;;;;;;;27.14;66.73;96870.94;2072275;28;20189;-61
2023/08/16 09:08:45;;;;;;;9.90;4.10;;;;;;;27.20;66.26;96863.06;2071265;28;20538;-61
2023/08/16 09:09:49;;;;;;;9.68;5.25;;;;;;;27.38;65.08;96864.72;2072717;28;20190;-61
2023/08/16 09:10:51;;;;;;;9.65;4.55;;;;;;;27.48;64.70;96859.22;2072025;28;20202;-61
2023/08/16 09:11:52;;;;;;;9.05;4.25;;;;;;;27.65;65.54;96865.38;2072529;28;20201;-62
2023/08/16 09:12:54;;;;;;;11.98;4.78;;;;;;;27.70;64.37;96868.38;2072526;28;20221;-61
2023/08/16 09:14:01;;;;;;;9.73;4.55;;;;;;;27.79;64.73;96856.59;2072532;28;20221;-61
2023/08/16 09:15:04;;;;;;;30.38;20.63;;;;;;;28.32;64.46;96870.38;2072439;28;20285;-60
2023/08/16 09:16:05;;;;;;;12.48;5.40;;;;;;;27.60;64.74;96867.72;2070983;28;20296;-61
2023/08/16 09:17:07;;;;;;;9.50;5.18;;;;;;;27.34;65.19;96864.22;2072562;28;20741;-61
2023/08/16 09:18:13;;;;;;;11.88;4.55;;;;;;;27.75;65.01;96865.19;2072520;28;20289;-61
2023/08/16 09:19:15;;;;;;;6.93;3.90;;;;;;;26.98;66.95;96859.22;2087546;28;20232;-61
2023/08/16 09:20:18;;;;;;;12.15;4.45;;;;;;;27.64;66.36;96853.81;2088173;28;20222;-61
2023/08/16 09:21:24;;;;;;;12.32;5.50;;;;;;;28.18;64.69;96863.06;2072143;28;20244;-62
2023/08/16 09:22:28;;;;;;;16.30;4.95;;;;;;;28.26;63.90;96859.50;2071815;28;20289;-62
2023/08/16 09:23:32;;;;;;;6.72;4.05;;;;;;;27.85;64.13;96857.78;2072660;28;20224;-61
2023/08/16 09:24:34;;;;;;;15.45;4.95;;;;;;;28.14;64.23;96859.88;2072557;28;20201;-61
2023/08/16 09:25:35;;;;;;;23.33;4.78;;;;;;;28.14;65.25;96857.19;2072040;28;20676;-62
2023/08/16 09:26:37;;;;;;;10.73;3.88;;;;;;;28.87;64.71;96861.53;2072771;28;20305;-63
2023/08/16 09:27:42;;;;;;;15.85;4.25;;;;;;;29.32;62.38;96857.16;2072703;28;20239;-62
2023/08/16 09:28:44;;;;;;;7.37;3.93;;;;;;;29.63;61.89;96857.00;2071292;28;20278;-61
2023/08/16 09:29:45;;;;;;;9.83;4.40;;;;;;;30.01;61.32;96852.63;2071161;28;20518;-62
2023/08/16 09:30:47;;;;;;;8.67;4.90;;;;;;;29.35;60.66;96864.03;2072175;28;20472;-62
2023/08/16 09:31:48;;;;;;;6.20;4.60;;;;;;;29.30;62.10;96851.94;2072319;28;20427;-62
2023/08/16 09:32:51;;;;;;;12.43;4.43;;;;;;;29.74;61.49;96853.03;2072558;28;20435;-61
2023/08/16 09:33:58;;;;;;;6.53;3.90;;;;;;;30.12;61.96;96850.28;2072502;28;20455;-62
2023/08/16 09:35:00;;;;;;;5.20;3.57;;;;;;;30.37;60.45;96860.75;2072550;28;20508;-62
2023/08/16 09:36:05;;;;;;;8.35;4.55;;;;;;;29.99;60.30;96854.66;2071529;28;20517;-62
2023/08/16 09:37:07;;;;;;;9.10;4.50;;;;;;;29.63;60.57;96853.50;2071419;28;20434;-62
2023/08/16 09:38:09;;;;;;;11.00;4.10;;;;;;;30.19;60.61;96853.03;2071384;28;20427;-62
2023/08/16 09:39:13;;;;;;;10.33;4.13;;;;;;;30.07;60.94;96846.50;2071386;28;20424;-62
2023/08/16 09:40:15;;;;;;;6.83;4.03;;;;;;;30.38;59.66;96848.09;2071768;28;20442;-62
2023/08/16 09:41:18;;;;;;;8.20;3.57;;;;;;;29.89;59.88;96852.22;2072164;28;20966;-62
2023/08/16 09:42:20;;;;;;;12.93;4.87;;;;;;;29.73;60.69;96850.53;2071814;28;20432;-62
2023/08/16 09:43:22;;;;;;;9.40;4.23;;;;;;;30.33;59.93;96842.44;2071872;28;20790;-62
2023/08/16 09:44:29;;;;;;;4.33;3.50;;;;;;;30.85;59.08;96849.44;2072387;28;20435;-61
2023/08/16 09:45:35;;;;;;;8.40;4.40;;;;;;;30.24;58.10;96844.41;2072505;28;20907;-62
2023/08/16 09:46:38;;;;;;;8.07;4.30;;;;;;;29.06;60.44;96847.59;2072074;28;20522;-62
2023/08/16 09:48:00;;;;;;;9.23;4.07;;;;;;;29.23;61.69;96853.69;2072440;28;20957;-62
2023/08/16 09:49:09;;;;;;;8.73;3.90;;;;;;;29.75;59.97;96846.66;2071504;28;20489;-62
2023/08/16 09:50:12;;;;;;;11.67;4.40;;;;;;;29.85;59.77;96853.59;2071660;28;20484;-62
2023/08/16 09:51:14;;;;;;;8.50;4.20;;;;;;;29.19;61.03;96846.16;2071690;28;20958;-62
2023/08/16 09:52:16;;;;;;;22.50;4.20;;;;;;;29.49;60.06;96853.28;2072408;28;20914;-62
2023/08/16 09:53:18;;;;;;;13.83;4.40;;;;;;;29.11;61.39;96849.75;2072148;28;20427;-62
2023/08/16 09:54:36;;;;;;;14.50;4.77;;;;;;;28.54;62.81;96845.59;2071821;28;20938;-62
2023/08/16 09:55:40;;;;;;;11.20;4.90;;;;;;;28.65;62.88;96851.38;2071675;28;20446;-62
2023/08/16 09:56:43;;;;;;;13.63;4.23;;;;;;;29.69;61.29;96842.00;2072258;28;20460;-61
2023/08/16 09:58:07;;;;;;;12.33;4.87;;;;;;;30.74;59.20;96841.88;2071788;28;20464;-62
2023/08/16 09:59:13;;;;;;;8.90;3.87;;;;;;;31.14;57.61;96847.69;2072356;28;20428;-62
2023/08/16 10:00:18;;;;;;;8.03;4.00;;;;;;;31.42;57.52;96845.00;2071952;28;20447;-62
2023/08/16 10:01:20;;;;;;;9.30;3.50;;;;;;;31.73;56.55;96846.50;2071863;28;20524;-62
2023/08/16 10:02:25;;;;;;;7.90;3.40;;;;;;;31.85;55.87;96845.94;2072326;28;20823;-62
2023/08/16 10:03:30;;;;;;;8.67;3.93;;;;;;;32.05;55.19;96848.75;2072338;28;20540;-62
2023/08/16 10:04:33;;;;;;;6.27;3.50;;;;;;;32.33;54.96;96845.16;2072424;28;20661;-62
2023/08/16 10:05:38;;;;;;;11.70;4.13;;;;;;;32.21;54.79;96853.00;2071332;28;20436;-63
2023/08/16 10:06:43;;;;;;;7.00;4.10;;;;;;;32.81;54.54;96846.97;2072409;28;20431;-63
2023/08/16 10:08:05;;;;;;;10.33;3.53;;;;;;;33.06;53.53;96855.34;2072211;28;20957;-63
2023/08/16 10:09:09;;;;;;;7.93;3.70;;;;;;;32.95;53.43;96845.13;2072274;28;20675;-63
2023/08/16 10:10:11;;;;;;;7.80;4.23;;;;;;;33.37;52.71;96846.66;2072050;28;20526;-63
2023/08/16 10:11:12;;;;;;;6.30;2.93;;;;;;;33.35;52.36;96848.72;2071168;28;20885;-63
2023/08/16 10:12:16;;;;;;;12.40;4.80;;;;;;;33.40;51.21;96856.22;2072197;28;20791;-62
2023/08/16 10:13:18;;;;;;;8.50;3.83;;;;;;;33.41;52.75;96848.91;2072037;28;20485;-62
2023/08/16 10:14:20;;;;;;;5.60;3.33;;;;;;;33.06;52.75;96852.63;2071318;28;20522;-63
2023/08/16 10:15:23;;;;;;;6.00;3.73;;;;;;;33.24;52.99;96852.00;2072091;28;20463;-62
2023/08/16 10:16:25;;;;;;;5.60;3.57;;;;;;;33.29;53.04;96841.44;2071407;28;20498;-63
2023/08/16 10:17:28;;;;;;;4.93;3.37;;;;;;;33.08;53.38;96850.56;2071744;28;20535;-63
2023/08/16 10:18:31;;;;;;;10.00;3.77;;;;;;;31.27;54.54;96842.41;2070654;28;21154;-63
2023/08/16 10:19:34;;;;;;;6.17;4.10;;;;;;;31.59;54.89;96845.56;2071896;28;20427;-62
2023/08/16 10:20:36;;;;;;;7.00;3.70;;;;;;;32.44;53.96;96844.56;2070706;28;20489;-63
2023/08/16 10:21:46;;;;;;;4.87;3.67;;;;;;;32.70;53.77;96851.94;2072017;28;20427;-63
2023/08/16 10:22:53;;;;;;;10.33;3.60;;;;;;;33.07;53.79;96845.38;2072201;28;20423;-63
2023/08/16 10:23:56;;;;;;;10.20;4.77;;;;;;;33.15;54.09;96843.28;2071612;28;20419;-62
2023/08/16 10:25:02;;;;;;;9.93;4.30;;;;;;;32.95;53.13;96848.69;2071682;28;20480;-62
2023/08/16 10:26:04;;;;;;;9.33;3.03;;;;;;;32.83;53.57;96845.75;2071668;28;20889;-63
2023/08/16 10:27:08;;;;;;;6.90;3.63;;;;;;;33.06;53.80;96839.13;2072106;28;20450;-63
2023/08/16 10:28:10;;;;;;;6.10;4.00;;;;;;;33.11;51.45;96838.50;2071729;28;20435;-62
2023/08/16 10:29:13;;;;;;;8.30;4.30;;;;;;;33.21;52.22;96828.91;2071019;28;20457;-62
2023/08/16 10:30:23;;;;;;;9.30;3.60;;;;;;;31.89;54.64;96826.44;2071940;28;20430;-62
2023/08/16 10:31:31;;;;;;;6.80;3.57;;;;;;;32.77;54.43;96827.63;2070107;28;20562;-62
2023/08/16 10:32:36;;;;;;;20.53;4.40;;;;;;;33.31;53.19;96822.31;2071477;28;20883;-63
2023/08/16 10:33:44;;;;;;;7.20;3.53;;;;;;;33.95;51.86;96823.44;2071706;28;20427;-62
2023/08/16 10:34:49;;;;;;;5.10;3.53;;;;;;;33.68;52.06;96828.91;2072051;28;20427;-62
2023/08/16 10:35:50;;;;;;;7.53;4.07;;;;;;;31.54;54.47;96823.72;2071003;28;20551;-62
2023/08/16 10:36:52;;;;;;;10.50;4.20;;;;;;;30.39;56.23;96825.53;2071192;28;20435;-62
2023/08/16 10:37:53;;;;;;;6.83;4.20;;;;;;;30.22;56.24;96825.75;2072245;28;20422;-62
2023/08/16 10:38:56;;;;;;;11.20;4.17;;;;;;;30.35;55.70;96824.22;2072062;28;20493;-62
2023/08/16 10:40:00;;;;;;;8.10;3.70;;;;;;;30.32;55.89;96814.66;2072249;28;20518;-62
2023/08/16 10:41:15;;;;;;;15.00;4.37;;;;;;;31.65;54.91;96814.25;2071318;28;20959;-62
2023/08/16 10:42:17;;;;;;;11.77;3.90;;;;;;;30.73;57.16;96810.59;2072028;28;20492;-62
2023/08/16 10:43:18;;;;;;;11.03;4.13;;;;;;;30.23;56.67;96813.97;2071778;28;20434;-62
2023/08/16 10:44:23;;;;;;;14.87;4.43;;;;;;;30.30;56.89;96809.47;2071826;28;20507;-62
2023/08/16 10:45:30;;;;;;;7.60;3.60;;;;;;;31.04;56.49;96814.81;2071359;28;20435;-62
2023/08/16 10:46:35;;;;;;;10.63;4.37;;;;;;;32.33;54.73;96819.00;2071071;28;20447;-64
2023/08/16 10:47:37;;;;;;;6.60;4.20;;;;;;;32.44;53.35;96819.44;2071905;28;20684;-62
2023/08/16 10:48:39;;;;;;;16.10;4.30;;;;;;;30.84;56.73;96810.06;2071591;28;20435;-61
2023/08/16 10:49:40;;;;;;;6.50;3.50;;;;;;;31.13;56.46;96810.97;2071456;28;20481;-62
2023/08/16 10:50:42;;;;;;;8.10;4.33;;;;;;;30.93;56.59;96808.91;2071489;28;20926;-63
2023/08/16 10:51:47;;;;;;;15.07;3.67;;;;;;;31.73;56.06;96819.53;2071870;28;20570;-62
2023/08/16 10:52:49;;;;;;;8.27;4.53;;;;;;;31.68;56.34;96821.97;2072059;28;20839;-62
2023/08/16 10:53:54;;;;;;;8.00;3.50;;;;;;;32.14;55.81;96806.19;2071915;28;20446;-62
2023/08/16 10:54:55;;;;;;;8.53;3.63;;;;;;;32.10;55.24;96811.19;2071678;28;20470;-62
2023/08/16 10:55:57;;;;;;;8.93;4.10;;;;;;;32.53;53.91;96820.91;2071117;28;20483;-62
2023/08/16 10:57:05;;;;;;;9.63;4.20;;;;;;;32.67;54.04;96819.91;2071850;28;20431;-61
2023/08/16 10:58:18;;;;;;;11.27;4.20;;;;;;;33.53;52.52;96814.78;2071308;28;20789;-62
2023/08/16 10:59:20;;;;;;;7.97;4.07;;;;;;;34.18;51.43;96812.13;2071642;28;20427;-62
2023/08/16 11:00:32;;;;;;;8.00;4.40;;;;;;;34.03;51.19;96817.00;2071912;28;20430;-62
2023/08/16 11:01:34;;;;;;;5.37;3.70;;;;;;;34.26;50.39;96813.75;2071435;28;20435;-62
2023/08/16 11:02:37;;;;;;;7.60;3.67;;;;;;;34.25;50.94;96814.00;2071301;28;20782;-63
2023/08/16 11:03:41;;;;;;;5.43;3.00;;;;;;;34.53;50.52;96816.38;2078861;28;20431;-63
2023/08/16 11:04:42;;;;;;;9.93;3.73;;;;;;;34.47;50.38;96809.91;2077880;28;20419;-63
2023/08/16 11:05:44;;;;;;;5.40;4.07;;;;;;;32.65;51.84;96807.66;2070871;28;20926;-62
2023/08/16 11:06:46;;;;;;;5.90;4.07;;;;;;;32.87;52.44;96808.31;2071934;28;20477;-62
2023/08/16 11:08:09;;;;;;;8.10;4.00;;;;;;;31.71;54.14;96799.97;2072012;28;20431;-63
2023/08/16 11:09:10;;;;;;;6.57;3.77;;;;;;;31.43;54.49;96810.78;2072050;28;20857;-62
2023/08/16 11:10:13;;;;;;;10.70;4.20;;;;;;;30.83;54.82;96800.31;2071738;28;20430;-62
2023/08/16 11:11:14;;;;;;;9.40;4.00;;;;;;;31.57;53.68;96800.91;2071153;28;20521;-62
2023/08/16 11:12:17;;;;;;;9.57;4.77;;;;;;;32.35;52.34;96795.31;2072075;28;20461;-63
2023/08/16 11:13:21;;;;;;;9.67;3.97;;;;;;;33.68;50.56;96791.00;2071847;28;20879;-63
2023/08/16 11:14:23;;;;;;;8.37;3.87;;;;;;;34.38;50.38;96797.69;2071991;28;20431;-62
2023/08/16 11:15:24;;;;;;;8.90;3.63;;;;;;;34.79;50.16;96788.25;2071674;28;20611;-62
2023/08/16 11:16:27;;;;;;;7.20;3.97;;;;;;;35.17;48.76;96794.66;2071176;28;20467;-62
2023/08/16 11:17:29;;;;;;;8.97;3.70;;;;;;;35.17;48.43;96794.66;2070749;28;20542;-63
2023/08/16 11:18:32;;;;;;;9.20;4.33;;;;;;;34.63;49.21;96796.94;2071801;28;20442;-63
2023/08/16 11:19:36;;;;;;;10.23;4.53;;;;;;;34.59;50.25;96790.25;2071529;28;20538;-62
2023/08/16 11:20:38;;;;;;;8.90;3.90;;;;;;;35.60;48.66;96804.72;2071097;28;20435;-61
2023/08/16 11:21:44;;;;;;;7.73;3.77;;;;;;;35.46;49.42;96805.91;2071915;28;20468;-61
2023/08/16 11:22:46;;;;;;;10.07;3.60;;;;;;;36.32;47.75;96800.59;2070743;28;20438;-61
2023/08/16 11:23:53;;;;;;;7.77;3.90;;;;;;;36.38;47.32;96801.56;2071805;28;20434;-61
2023/08/16 11:24:55;;;;;;;4.70;3.13;;;;;;;36.26;46.41;96807.75;2071916;28;20477;-61
2023/08/16 11:26:01;;;;;;;11.00;4.33;;;;;;;33.73;50.32;96803.09;2071399;28;20490;-61
2023/08/16 11:27:03;;;;;;;13.67;3.80;;;;;;;33.59;50.43;96802.28;2071968;28;20465;-62
2023/08/16 11:28:05;;;;;;;35.77;23.20;;;;;;;34.77;49.46;96800.38;2072034;28;20429;-62
2023/08/16 11:29:06;;;;;;;29.70;15.80;;;;;;;34.97;47.85;96809.22;2071978;28;20514;-62
2023/08/16 11:30:08;;;;;;;8.73;3.97;;;;;;;34.00;49.61;96803.88;2071891;28;20438;-61
2023/08/16 11:31:11;;;;;;;7.83;4.20;;;;;;;34.52;50.16;96798.44;2069824;28;20832;-61
2023/08/16 11:32:13;;;;;;;9.37;4.50;;;;;;;35.62;47.97;96805.34;2071826;28;20525;-61
2023/08/16 11:33:15;;;;;;;11.10;3.73;;;;;;;35.58;48.11;96800.56;2071693;28;20481;-61
2023/08/16 11:34:18;;;;;;;9.70;3.90;;;;;;;34.90;49.12;96800.31;2071910;28;21110;-61
2023/08/16 11:35:19;;;;;;;6.50;4.03;;;;;;;34.74;49.86;96798.09;2071661;28;20483;-62
2023/08/16 11:36:21;;;;;;;8.53;3.27;;;;;;;35.26;48.50;96801.47;2071108;28;20838;-62
2023/08/16 11:37:22;;;;;;;4.40;3.30;;;;;;;35.72;48.59;96795.81;2071823;28;20446;-61
2023/08/16 11:38:24;;;;;;;6.13;3.30;;;;;;;36.36;47.67;96798.28;2071756;28;20462;-61
2023/08/16 11:39:27;;;;;;;5.83;3.27;;;;;;;36.75;47.18;96804.22;2071636;28;20423;-61
2023/08/16 11:40:29;;;;;;;10.10;4.13;;;;;;;36.57;46.63;96792.34;2071363;28;20905;-61
2023/08/16 11:41:30;;;;;;;12.50;3.90;;;;;;;36.93;46.35;96797.91;2071323;28;20459;-62
2023/08/16 11:42:32;;;;;;;7.10;3.60;;;;;;;36.72;46.92;96786.47;2071809;28;20483;-61
2023/08/16 11:43:35;;;;;;;6.57;3.20;;;;;;;35.68;48.23;96786.47;2071796;28;20426;-61
2023/08/16 11:44:38;;;;;;;8.73;3.07;;;;;;;35.05;47.81;96789.13;2071769;28;20423;-62
2023/08/16 11:45:40;;;;;;;10.73;3.93;;;;;;;34.74;48.53;96789.97;2071170;28;21041;-61
2023/08/16 11:46:43;;;;;;;10.17;3.23;;;;;;;35.56;47.64;96798.09;2070704;28;21210;-61
2023/08/16 11:47:50;;;;;;;9.63;3.57;;;;;;;35.40;45.99;96785.09;2071953;28;20458;-61
2023/08/16 11:48:51;;;;;;;6.77;3.70;;;;;;;36.20;45.96;96783.38;2071427;28;20508;-62
2023/08/16 11:49:53;;;;;;;13.40;3.60;;;;;;;34.87;46.74;96783.63;2071731;28;20427;-61
2023/08/16 11:50:56;;;;;;;7.23;3.57;;;;;;;34.95;47.66;96778.78;2071114;28;20458;-62
2023/08/16 11:51:59;;;;;;;6.53;3.53;;;;;;;34.86;48.08;96779.28;2070633;28;20427;-61
2023/08/16 11:53:03;;;;;;;6.20;3.00;;;;;;;34.97;48.71;96776.69;2071839;28;20435;-61
2023/08/16 11:54:07;;;;;;;6.63;3.70;;;;;;;34.81;48.56;96769.06;2071322;28;20419;-61
2023/08/16 11:55:13;;;;;;;8.10;3.67;;;;;;;34.60;49.22;96771.09;2071737;28;21090;-62
2023/08/16 11:56:15;;;;;;;7.00;3.63;;;;;;;33.81;50.83;96778.53;2070861;28;20925;-61
2023/08/16 11:57:20;;;;;;;6.57;3.50;;;;;;;33.30;52.16;96763.84;2071789;28;21025;-61
2023/08/16 11:58:21;;;;;;;9.47;3.47;;;;;;;33.52;52.64;96770.66;2071370;28;20493;-62
2023/08/16 11:59:27;;;;;;;6.63;3.03;;;;;;;34.65;50.85;96765.84;2070843;28;20431;-61
2023/08/16 12:00:29;;;;;;;6.90;3.70;;;;;;;35.48;49.07;96769.34;2071678;28;20969;-61
2023/08/16 12:01:31;;;;;;;5.07;3.60;;;;;;;35.10;49.66;96767.59;2071132;28;20486;-62
2023/08/16 12:02:32;;;;;;;6.57;3.70;;;;;;;35.44;47.50;96765.44;2073074;28;20427;-62
2023/08/16 12:03:34;;;;;;;6.40;3.67;;;;;;;34.67;48.62;96774.56;2071692;28;20523;-62
2023/08/16 12:04:42;;;;;;;6.40;3.50;;;;;;;35.78;46.74;96770.50;2073236;28;21212;-62
2023/08/16 12:05:49;;;;;;;5.80;3.60;;;;;;;36.49;45.23;96770.91;2072910;28;20858;-62
2023/08/16 12:06:50;;;;;;;4.03;2.80;;;;;;;35.09;47.56;96765.94;2073101;28;20776;-61
2023/08/16 12:07:52;;;;;;;9.17;3.30;;;;;;;34.25;49.00;96767.94;2073142;28;20447;-61